Terminal Aerodrome Forecast
Issued by NWS Sioux Falls, SD

Home | Current Version | Previous Version | Graphics & Text | Print | Product List | Glossary Off
Versions: 1 2 3 4 5 6 7 8 9 10 11 12 13 14 15 16 17 18 19 20

000
FTUS43 KFSD 240100 AAA
TAFSUX
TAF AMD
KSUX 240102Z 2401/2424 15014G25KT P6SM BKN100
      TEMPO 2401/2402 P6SM -TSRA OVC050CB
     FM240300 08009KT P6SM -RA OVC035
      TEMPO 2403/2405 4SM TSRA OVC025CB
     FM240900 32010KT P6SM BKN060
      TEMPO 2409/2410 6SM -RA BR OVC030
     FM241500 33015G22KT P6SM SCT080
     FM241800 33018G27KT P6SM SKC=

USA.gov is the U.S. government's official web portal to all federal, state and local government web resources and services.